Seeley Lake, MT (59868)

1:36 PM MDT on June 22, 2017 (GMT -0600)
KMTSEELE4 | | Change Station

Elev 4028 ft 47.15 °N, 113.48 °W | Updated 0 second ago

Clear
Clear
63.3 °F
Feels Like 63.3 °F
N
0.0
Wind Variable Wind from WSW
Gusts 3.0 mph

Today
High -- | Low -- °F
--% Chance of Precip.
Yesterday
High -- | Low -- °F
Precip. -- in
Pressure 30.09 in
Visibility 10.0 miles
Clouds Clear
Dew Point 33 °F
Humidity 32%
Rainfall 0.00 in
Snow Depth Not available.
5:38 AM 9:33 PM
Waning Crescent, 3% visible
METAR KMSO 221853Z 01013KT 10SM CLR 21/01 A3012 RMK AO2 SLP187 T02110011
Pressure 30.09 in
Visibility 10.0 miles
Clouds Clear
Dew Point 33 °F
Humidity 32%
Rainfall 0.00 in
Snow Depth Not available.
5:38 AM 9:33 PM
Waning Crescent, 3% visible
METAR KMSO 221853Z 01013KT 10SM CLR 21/01 A3012 RMK AO2 SLP187 T02110011

Get Severe Weather Alerts

Thanks for signing up!

Be on the lookout for a verification email in your inbox.

You'll start receiving the daily forecast at 6 AM.

×

10-Day Weather Forecast

Almanac

Astronomy

Jun. 22, 2017 Rise Set
Actual Time
Civil Twilight
Nautical Twilight
Astronomical Twilight
Moon
Length of Visible Light
Length of Day
Tomorrow will be .
, % of the Moon is Illuminated

Today's Extremes

State Highs State Lows

Community

WunderPhotos

Category 6

Welcome to Category 6. This is the collective home for Weather Underground's featured writeups by Dr. Jeff Masters (right), Bob Henson (left), Chris Burt, and other regular contributors.

Nearby

Air Quality

  Air Quality AQ Index Pollutant
Not available.

Snow Depth

Station Depth Elevation

Earthquake Activity

City Distance Mag. Time & Date
Minimum magnitude displayed is 2.5.

Coastal Water Temperatures

Place Temperature

Stations

Nearby Weather Stations

Station Location Temp. Windchill Dew Point Humidity Wind Precip. Elev Updated Type
                   

Watches & Warnings

There are currently no watches in effect.